createdAt,value
2019-06-01T00:00:13.836Z,5.10
2019-06-01T00:05:19.247Z,5.50
2019-06-01T00:10:24.754Z,4.70
2019-06-01T00:15:30.151Z,4.60
2019-06-01T00:20:35.923Z,4.93
2019-06-01T00:25:42.373Z,5.23
2019-06-01T00:30:48.060Z,5.20
2019-06-01T00:35:53.479Z,5.67
2019-06-01T00:40:59.126Z,5.43
2019-06-01T00:46:04.583Z,5.40
2019-06-01T00:51:10.047Z,4.77
2019-06-01T00:56:15.454Z,5.00
2019-06-01T01:01:20.862Z,5.97
2019-06-01T01:06:26.295Z,6.57
2019-06-01T01:11:31.711Z,6.10
2019-06-01T01:16:37.181Z,6.43
2019-06-01T01:21:42.682Z,6.33
2019-06-01T01:26:48.475Z,6.83
2019-06-01T01:31:53.975Z,6.83
2019-06-01T01:36:59.763Z,6.33
2019-06-01T01:42:05.270Z,6.20
2019-06-01T01:47:10.719Z,6.40
2019-06-01T01:52:16.135Z,6.10
2019-06-01T01:57:21.569Z,6.27
2019-06-01T02:02:27.019Z,6.03
2019-06-01T02:07:32.455Z,5.50
2019-06-01T02:12:37.982Z,5.50
2019-06-01T02:17:43.408Z,5.70
2019-06-01T02:22:48.828Z,5.80
2019-06-01T02:27:55.031Z,6.37
2019-06-01T02:33:02.214Z,5.60
2019-06-01T02:38:09.362Z,6.70
2019-06-01T02:43:14.833Z,6.87
2019-06-01T02:48:20.278Z,7.20
2019-06-01T02:53:25.720Z,6.80
2019-06-01T02:58:31.159Z,7.60
2019-06-01T03:03:36.623Z,6.80
2019-06-01T03:08:42.857Z,6.40
2019-06-01T03:13:48.314Z,6.90
2019-06-01T03:18:53.900Z,6.80
2019-06-01T03:24:09.402Z,7.03
2019-06-01T03:29:18.524Z,7.10
2019-06-01T03:34:23.932Z,7.30
2019-06-01T03:39:29.743Z,9.23
2019-06-01T03:44:35.181Z,7.60
2019-06-01T03:49:40.697Z,6.87
2019-06-01T03:54:48.589Z,6.40
2019-06-01T03:59:53.260Z,6.57
2019-06-01T04:04:58.674Z,6.60
2019-06-01T04:10:05.644Z,6.17
2019-06-01T04:15:14.583Z,6.37
2019-06-01T04:20:18.349Z,6.27
2019-06-01T04:25:23.766Z,6.27
2019-06-01T04:30:29.166Z,6.13
2019-06-01T04:35:34.742Z,6.20
2019-06-01T04:40:40.252Z,6.00
2019-06-01T04:45:45.725Z,6.10
2019-06-01T04:50:51.426Z,6.67
2019-06-01T04:55:56.891Z,6.33
2019-06-01T05:01:02.323Z,6.30
2019-06-01T05:06:09.146Z,5.97
2019-06-01T05:11:15.710Z,5.70
2019-06-01T05:16:21.256Z,5.73
2019-06-01T05:21:26.670Z,5.70
2019-06-01T05:26:33.932Z,4.83
2019-06-01T05:31:39.380Z,4.80
2019-06-01T05:36:44.833Z,4.57
2019-06-01T05:41:50.398Z,4.63
2019-06-01T05:46:56.105Z,4.23
2019-06-01T05:52:02.002Z,4.07
2019-06-01T05:57:07.719Z,4.30
2019-06-01T06:02:13.407Z,4.27
2019-06-01T06:07:19.123Z,3.93
2019-06-01T06:12:24.890Z,3.93
2019-06-01T06:17:30.559Z,4.23
2019-06-01T06:22:36.445Z,4.80
2019-06-01T06:27:42.196Z,4.83
2019-06-01T06:32:47.954Z,6.83
2019-06-01T06:37:53.677Z,4.57
2019-06-01T06:42:59.423Z,4.80
2019-06-01T06:48:05.293Z,5.40
2019-06-01T06:53:24.407Z,5.53
2019-06-01T06:58:18.899Z,4.77
2019-06-01T07:03:25.280Z,5.40
2019-06-01T07:08:31.084Z,5.77
2019-06-01T07:13:36.907Z,4.67
2019-06-01T07:18:42.594Z,4.90
2019-06-01T07:23:48.347Z,4.80
2019-06-01T07:28:54.109Z,5.10
2019-06-01T07:33:59.842Z,4.37
2019-06-01T07:39:06.753Z,4.50
2019-06-01T07:44:12.637Z,4.50
2019-06-01T07:49:18.338Z,4.37
2019-06-01T07:54:24.853Z,4.10
2019-06-01T07:59:32.375Z,3.33
2019-06-01T08:04:52.830Z,3.33
2019-06-01T08:09:45.711Z,3.60
2019-06-01T08:14:51.414Z,3.00
2019-06-01T08:19:57.152Z,2.90
2019-06-01T08:25:02.862Z,2.50
2019-06-01T08:30:08.718Z,2.50
2019-06-01T08:35:14.441Z,1.90
2019-06-01T08:40:20.286Z,1.77
2019-06-01T08:45:26.006Z,1.80
2019-06-01T08:50:31.909Z,1.90
2019-06-01T08:55:37.830Z,1.80
2019-06-01T09:00:43.601Z,1.80
2019-06-01T09:05:49.352Z,1.70
2019-06-01T09:10:55.091Z,1.30
2019-06-01T09:16:00.846Z,1.60
2019-06-01T09:21:06.628Z,1.60
2019-06-01T09:26:12.318Z,1.50
2019-06-01T09:31:18.146Z,1.40
2019-06-01T09:36:23.802Z,1.50
2019-06-01T09:41:30.495Z,1.60
2019-06-01T09:46:37.396Z,1.30
2019-06-01T09:51:43.273Z,1.40
2019-06-01T09:56:49.014Z,1.30
2019-06-01T10:01:54.842Z,1.57
2019-06-01T10:07:00.583Z,1.67
2019-06-01T10:12:06.592Z,1.53
2019-06-01T10:17:12.332Z,1.73
2019-06-01T10:22:18.082Z,1.90
2019-06-01T10:27:23.859Z,1.47
2019-06-01T10:32:29.884Z,1.70
2019-06-01T10:37:35.620Z,1.60
2019-06-01T10:42:41.914Z,1.80
2019-06-01T10:47:47.796Z,1.73
2019-06-01T10:52:53.629Z,1.90
2019-06-01T10:57:59.350Z,1.90
2019-06-01T11:03:05.074Z,2.30
2019-06-01T11:08:10.809Z,2.10
2019-06-01T11:13:16.484Z,2.07
2019-06-01T11:18:22.188Z,2.20
2019-06-01T11:23:28.266Z,1.80
2019-06-01T11:28:33.960Z,1.90
2019-06-01T11:33:40.170Z,2.43
2019-06-01T11:38:46.014Z,1.80
2019-06-01T11:43:51.817Z,1.90
2019-06-01T11:48:57.586Z,1.70
2019-06-01T11:54:03.396Z,2.13
2019-06-01T11:59:09.071Z,2.00
2019-06-01T12:04:14.779Z,2.00
2019-06-01T12:09:20.760Z,1.90
2019-06-01T12:14:26.559Z,2.00
2019-06-01T12:19:32.395Z,1.93
2019-06-01T12:24:38.831Z,1.97
2019-06-01T12:29:45.743Z,1.70
2019-06-01T12:34:51.599Z,1.50
2019-06-01T12:39:57.411Z,2.20
2019-06-01T12:45:03.139Z,1.70
2019-06-01T12:50:09.150Z,1.70
2019-06-01T12:55:14.989Z,4.60
2019-06-01T13:00:21.121Z,2.10
2019-06-01T13:05:26.824Z,2.13
2019-06-01T13:10:32.722Z,1.47
2019-06-01T13:15:38.721Z,1.47
2019-06-01T13:20:45.417Z,1.77
2019-06-01T13:25:51.892Z,2.20
2019-06-01T13:30:57.623Z,1.83
2019-06-01T13:36:03.351Z,1.70
2019-06-01T13:41:09.231Z,1.50
2019-06-01T13:46:14.939Z,1.67
2019-06-01T13:51:21.013Z,1.50
2019-06-01T13:56:26.914Z,1.80
2019-06-01T14:01:32.629Z,1.93
2019-06-01T14:06:38.431Z,1.90
2019-06-01T14:11:45.261Z,1.77
2019-06-01T14:16:51.735Z,1.70
2019-06-01T14:21:57.637Z,1.90
2019-06-01T14:27:03.409Z,1.60
2019-06-01T14:32:09.379Z,1.73
2019-06-01T14:37:15.201Z,1.60
2019-06-01T14:42:20.991Z,1.60
2019-06-01T14:47:26.745Z,1.47
2019-06-01T14:52:35.180Z,1.70
2019-06-01T14:57:39.870Z,1.53
2019-06-01T15:02:45.600Z,2.30
2019-06-01T15:07:52.378Z,1.77
2019-06-01T15:13:02.648Z,1.90
2019-06-01T15:18:05.603Z,1.80
2019-06-01T15:23:11.357Z,2.10
2019-06-01T15:28:17.226Z,2.27
2019-06-01T15:33:23.019Z,2.17
2019-06-01T15:38:28.791Z,1.70
2019-06-01T15:43:34.533Z,2.00
2019-06-01T15:48:40.327Z,1.90
2019-06-01T15:53:46.185Z,1.90
2019-06-01T15:58:54.896Z,1.87
2019-06-01T16:03:59.375Z,1.70
2019-06-01T16:09:05.907Z,1.80
2019-06-01T16:14:11.733Z,2.17
2019-06-01T16:19:17.482Z,1.93
2019-06-01T16:24:23.168Z,2.13
2019-06-01T16:29:28.974Z,1.73
2019-06-01T16:34:34.768Z,2.00
2019-06-01T16:39:40.472Z,1.83
2019-06-01T16:44:46.264Z,1.83
2019-06-01T16:49:51.988Z,2.00
2019-06-01T16:54:58.217Z,1.90
2019-06-01T17:00:04.886Z,2.30
2019-06-01T17:05:10.668Z,1.70
2019-06-01T17:10:25.852Z,2.03
2019-06-01T17:15:23.752Z,1.80
2019-06-01T17:20:50.880Z,1.73
2019-06-01T17:25:58.246Z,1.90
2019-06-01T17:31:04.372Z,1.80
2019-06-01T17:36:10.363Z,2.23
2019-06-01T17:41:16.185Z,2.00
2019-06-01T17:46:21.945Z,1.87
2019-06-01T17:51:27.694Z,2.00
2019-06-01T17:56:33.355Z,2.20
2019-06-01T18:01:42.328Z,1.80
2019-06-01T18:06:46.479Z,1.90
2019-06-01T18:11:51.941Z,2.17
2019-06-01T18:16:57.655Z,2.27
2019-06-01T18:22:04.431Z,2.20
2019-06-01T18:27:10.669Z,2.53
2019-06-01T18:32:16.481Z,2.30
2019-06-01T18:37:21.928Z,2.30
2019-06-01T18:42:27.621Z,2.63
2019-06-01T18:47:33.158Z,2.10
2019-06-01T18:52:38.564Z,2.10
2019-06-01T18:57:46.406Z,2.40
2019-06-01T19:02:51.921Z,2.47
2019-06-01T19:07:57.373Z,2.90
2019-06-01T19:13:02.842Z,2.37
2019-06-01T19:18:08.375Z,2.60
2019-06-01T19:23:14.886Z,2.57
2019-06-01T19:28:20.558Z,2.73
2019-06-01T19:33:26.065Z,3.07
2019-06-01T19:38:31.623Z,3.60
2019-06-01T19:43:37.081Z,4.17
2019-06-01T19:48:42.579Z,3.93
2019-06-01T19:53:48.078Z,4.00
2019-06-01T19:58:53.496Z,3.97
2019-06-01T20:03:58.940Z,4.17
2019-06-01T20:09:06.079Z,4.00
2019-06-01T20:14:12.141Z,4.17
2019-06-01T20:19:17.854Z,3.93
2019-06-01T20:24:23.386Z,3.87
2019-06-01T20:29:28.852Z,3.87
2019-06-01T20:34:34.275Z,3.93
2019-06-01T20:39:39.707Z,4.20
2019-06-01T20:44:45.186Z,3.87
2019-06-01T20:49:50.720Z,4.60
2019-06-01T20:54:56.232Z,4.77
2019-06-01T21:00:01.742Z,4.40
2019-06-01T21:05:07.917Z,3.87
2019-06-01T21:10:14.041Z,4.13
2019-06-01T21:15:19.654Z,4.30
2019-06-01T21:20:29.535Z,4.53
2019-06-01T21:25:32.243Z,4.63
2019-06-01T21:30:37.677Z,4.57
2019-06-01T21:35:43.063Z,4.33
2019-06-01T21:40:48.567Z,4.00
2019-06-01T21:45:54.120Z,4.53
2019-06-01T21:50:59.555Z,4.40
2019-06-01T21:56:05.076Z,4.37
2019-06-01T22:01:10.714Z,4.33
2019-06-01T22:06:17.048Z,4.77
2019-06-01T22:11:23.474Z,5.00
2019-06-01T22:16:29.342Z,4.63
2019-06-01T22:21:34.767Z,4.83
2019-06-01T22:26:40.313Z,5.33
2019-06-01T22:31:45.714Z,4.93
2019-06-01T22:36:51.320Z,4.90
2019-06-01T22:41:56.834Z,4.80
2019-06-01T22:47:02.331Z,5.07
2019-06-01T22:52:07.810Z,5.37
2019-06-01T22:57:13.257Z,4.97
2019-06-01T23:02:18.695Z,5.47
2019-06-01T23:07:25.117Z,5.70
2019-06-01T23:12:31.633Z,5.67
2019-06-01T23:17:37.405Z,5.53
2019-06-01T23:22:42.960Z,5.70
2019-06-01T23:27:48.446Z,5.40
2019-06-01T23:32:53.976Z,5.77
2019-06-01T23:37:59.430Z,6.00
2019-06-01T23:43:04.983Z,6.20
2019-06-01T23:48:10.477Z,5.57
2019-06-01T23:53:16.020Z,6.00
2019-06-01T23:58:21.436Z,6.77
